Time;durP1;ratioP1;P1;durP2;ratioP2;P2;SDS_P1;SDS_P2;PMS_P1;PMS_P2;Temp;Humidity;BMP_temperature;BMP_pressure;BME280_temperature;BME280_humidity;BME280_pressure;Samples;Min_cycle;Max_cycle;Signal;HPM_P1;HPM_P2
2020/12/09 00:01:15;;;;;;;38.90;20.95;;;;;;;-0.45;71.79;100643.64;1673494;83;26294;-78
2020/12/09 00:03:42;;;;;;;36.40;19.75;;;;;;;-0.48;71.64;100642.53;1667339;83;25812;-78
2020/12/09 00:06:09;;;;;;;34.58;18.95;;;;;;;-0.49;71.71;100644.74;1659635;83;26357;-78
2020/12/09 00:08:35;;;;;;;32.17;18.92;;;;;;;-0.52;71.66;100646.20;1666306;84;25860;-78
2020/12/09 00:11:02;;;;;;;33.00;19.25;;;;;;;-0.52;71.73;100635.09;1673391;83;25742;-78
2020/12/09 00:13:28;;;;;;;38.33;21.33;;;;;;;-0.53;71.71;100643.71;1674007;83;25596;-78
2020/12/09 00:15:54;;;;;;;35.90;20.90;;;;;;;-0.56;71.70;100645.17;1660919;83;25744;-78
2020/12/09 00:18:21;;;;;;;37.53;20.88;;;;;;;-0.56;71.73;100649.84;1668142;85;26428;-77
2020/12/09 00:20:47;;;;;;;31.23;20.17;;;;;;;-0.60;71.72;100645.81;1667149;83;25694;-78
2020/12/09 00:23:14;;;;;;;34.85;18.85;;;;;;;-0.62;71.76;100648.09;1667044;83;25723;-77
2020/12/09 00:25:40;;;;;;;37.00;21.02;;;;;;;-0.61;71.84;100647.98;1668618;83;25820;-78
2020/12/09 00:28:09;;;;;;;35.78;20.65;;;;;;;-0.61;71.85;100646.70;1668868;84;25773;-78
2020/12/09 00:30:35;;;;;;;32.73;20.48;;;;;;;-0.61;71.78;100649.27;1669645;83;25903;-78
2020/12/09 00:33:01;;;;;;;39.48;20.70;;;;;;;-0.61;71.77;100647.98;1665700;83;25772;-78
2020/12/09 00:35:28;;;;;;;41.20;19.77;;;;;;;-0.62;71.81;100648.91;1678975;83;25837;-78
2020/12/09 00:37:54;;;;;;;36.70;19.95;;;;;;;-0.61;71.81;100652.30;1678575;83;26409;-78
2020/12/09 00:40:20;;;;;;;32.25;19.40;;;;;;;-0.61;71.76;100645.88;1677150;83;25777;-78
2020/12/09 00:42:46;;;;;;;35.70;18.65;;;;;;;-0.64;71.74;100644.31;1677249;83;26009;-77
2020/12/09 00:45:13;;;;;;;35.20;19.48;;;;;;;-0.69;71.73;100643.28;1677469;83;26667;-78
2020/12/09 00:47:41;;;;;;;32.83;18.77;;;;;;;-0.70;71.73;100645.48;1677367;83;25869;-78
2020/12/09 00:52:42;;;;;;;34.00;19.57;;;;;;;-0.67;71.82;100645.31;1676849;83;26509;-78
2020/12/09 00:55:10;;;;;;;36.05;20.50;;;;;;;-0.71;71.70;100642.56;1678589;83;25828;-77
2020/12/09 00:57:37;;;;;;;37.88;20.85;;;;;;;-0.70;71.81;100643.38;1667350;83;25699;-77
2020/12/09 01:00:07;;;;;;;32.48;19.50;;;;;;;-0.69;71.75;100645.84;1671815;83;25780;-77
2020/12/09 01:02:35;;;;;;;35.23;18.92;;;;;;;-0.74;71.60;100642.73;1678466;83;26461;-77
2020/12/09 01:05:01;;;;;;;35.13;19.45;;;;;;;-0.77;71.68;100640.77;1682021;83;25845;-77
2020/12/09 01:07:28;;;;;;;32.88;18.42;;;;;;;-0.78;71.67;100646.83;1680190;83;26496;-78
2020/12/09 01:09:54;;;;;;;35.60;19.17;;;;;;;-0.81;71.66;100644.44;1677997;83;26676;-77
2020/12/09 01:12:20;;;;;;;35.78;20.75;;;;;;;-0.85;71.67;100641.19;1678412;83;25826;-78
2020/12/09 01:14:47;;;;;;;36.42;19.87;;;;;;;-0.87;71.74;100639.19;1676047;83;25317;-78
2020/12/09 01:17:13;;;;;;;35.75;20.68;;;;;;;-0.86;71.81;100644.69;1678571;83;25784;-78
2020/12/09 01:19:39;;;;;;;39.30;21.77;;;;;;;-0.82;71.89;100641.05;1679674;83;26702;-78
2020/12/09 01:22:07;;;;;;;34.88;20.15;;;;;;;-0.83;71.76;100643.69;1679372;83;25787;-78
2020/12/09 01:24:35;;;;;;;37.55;21.20;;;;;;;-0.85;71.82;100648.89;1677093;83;25828;-78
2020/12/09 01:27:01;;;;;;;31.85;19.07;;;;;;;-0.84;71.83;100640.30;1669229;83;26421;-78
2020/12/09 01:29:28;;;;;;;44.80;20.20;;;;;;;-0.83;71.87;100641.94;1676059;83;25870;-78
2020/12/09 01:31:59;;;;;;;38.05;19.98;;;;;;;-0.81;71.87;100643.98;1675256;83;25685;-77
2020/12/09 01:34:28;;;;;;;35.35;19.90;;;;;;;-0.83;71.79;100635.53;1680644;82;25718;-78
2020/12/09 01:37:00;;;;;;;33.10;20.32;;;;;;;-0.87;71.79;100637.91;1671566;83;25336;-77
2020/12/09 01:39:27;;;;;;;36.60;19.40;;;;;;;-0.84;71.83;100642.87;1679443;83;26709;-78
2020/12/09 01:41:53;;;;;;;36.68;19.02;;;;;;;-0.84;71.88;100633.89;1677609;83;25912;-78
2020/12/09 01:44:19;;;;;;;31.23;19.52;;;;;;;-0.82;71.89;100633.78;1678500;83;25714;-77
2020/12/09 01:46:47;;;;;;;34.38;19.60;;;;;;;-0.82;71.79;100644.05;1678824;83;25871;-78
2020/12/09 01:49:14;;;;;;;35.75;19.23;;;;;;;-0.84;71.74;100642.87;1678922;83;25851;-77
2020/12/09 01:51:41;;;;;;;37.65;20.43;;;;;;;-0.86;71.73;100653.66;1681936;83;26315;-77
2020/12/09 01:54:07;;;;;;;35.17;20.10;;;;;;;-0.85;71.79;100646.79;1681116;83;25715;-77
2020/12/09 01:56:33;;;;;;;32.67;18.75;;;;;;;-0.84;71.78;100651.02;1680085;83;25280;-77
2020/12/09 01:59:00;;;;;;;49.42;22.35;;;;;;;-0.82;71.78;100646.61;1685391;83;25731;-78
2020/12/09 02:01:26;;;;;;;36.33;20.12;;;;;;;-0.80;71.80;100644.80;1672787;83;25828;-78
2020/12/09 02:04:10;;;;;;;33.78;18.85;;;;;;;-0.83;71.65;100642.41;1681637;83;25571;-78
2020/12/09 02:06:37;;;;;;;35.88;19.52;;;;;;;-0.86;71.63;100651.56;1682383;83;25751;-78
2020/12/09 02:09:03;;;;;;;38.67;19.02;;;;;;;-0.92;71.61;100656.11;1677936;83;25705;-78
2020/12/09 02:11:29;;;;;;;35.00;19.25;;;;;;;-0.93;71.69;100649.77;1678461;84;25684;-78
2020/12/09 02:13:55;;;;;;;37.00;21.23;;;;;;;-0.92;71.67;100653.55;1676783;83;25729;-78
2020/12/09 02:16:22;;;;;;;34.20;19.37;;;;;;;-0.88;71.74;100650.81;1677075;83;25674;-77
2020/12/09 02:18:48;;;;;;;32.40;18.92;;;;;;;-0.86;71.73;100655.41;1669808;83;25879;-77
2020/12/09 02:21:15;;;;;;;33.05;18.67;;;;;;;-0.86;71.72;100656.69;1678981;83;25669;-78
2020/12/09 02:23:41;;;;;;;32.60;18.70;;;;;;;-0.87;71.72;100655.88;1673660;83;25832;-77
2020/12/09 02:26:08;;;;;;;36.35;18.85;;;;;;;-0.84;71.65;100662.57;1676548;83;25502;-78
2020/12/09 02:28:34;;;;;;;35.90;17.98;;;;;;;-0.85;71.66;100653.20;1680135;84;25838;-77
2020/12/09 02:31:00;;;;;;;35.50;20.00;;;;;;;-0.84;71.62;100658.73;1683214;83;25979;-78
2020/12/09 02:40:48;;;;;;;33.55;17.98;;;;;;;-0.90;71.50;100639.37;1666618;83;25896;-77
2020/12/09 02:43:14;;;;;;;34.63;18.42;;;;;;;-0.94;71.55;100646.84;1626990;85;25660;-77
2020/12/09 02:45:40;;;;;;;30.97;18.35;;;;;;;-0.97;71.47;100632.91;1625121;86;25893;-77
2020/12/09 02:48:07;;;;;;;35.55;19.60;;;;;;;-1.01;71.38;100638.67;1669362;83;25858;-78
2020/12/09 02:50:33;;;;;;;31.75;17.87;;;;;;;-1.05;71.42;100635.89;1670795;83;25793;-77
2020/12/09 02:52:59;;;;;;;29.52;16.52;;;;;;;-1.06;71.39;100645.78;1665329;83;25746;-77
2020/12/09 02:55:26;;;;;;;34.27;18.35;;;;;;;-1.07;71.45;100644.11;1657479;83;25865;-78
2020/12/09 02:57:52;;;;;;;30.95;17.55;;;;;;;-1.08;71.34;100648.88;1665373;83;25706;-78
2020/12/09 03:00:18;;;;;;;31.20;18.45;;;;;;;-1.08;71.32;100640.37;1663348;84;25813;-78
2020/12/09 03:02:45;;;;;;;32.23;16.80;;;;;;;-1.10;71.31;100640.44;1662636;84;26346;-77
2020/12/09 03:20:53;;;;;;;31.00;17.82;;;;;;;-1.15;71.30;100654.81;1661492;84;26350;-78
2020/12/09 03:23:19;;;;;;;35.48;18.85;;;;;;;-1.19;71.31;100657.16;1663731;84;25767;-77
2020/12/09 03:25:46;;;;;;;32.00;17.60;;;;;;;-1.20;71.39;100655.51;1657258;84;25715;-78
2020/12/09 03:28:12;;;;;;;31.07;17.05;;;;;;;-1.17;71.40;100660.93;1655807;85;25688;-78
2020/12/09 03:30:38;;;;;;;30.02;17.27;;;;;;;-1.19;71.31;100661.00;1659293;84;26322;-78
2020/12/09 03:33:05;;;;;;;30.30;16.95;;;;;;;-1.18;71.42;100660.08;1664151;84;25988;-79
2020/12/09 03:35:31;;;;;;;32.33;18.07;;;;;;;-1.15;71.43;100649.69;1664384;84;25755;-78
2020/12/09 03:38:19;;;;;;;30.00;17.55;;;;;;;-1.15;71.37;100656.09;1667133;83;25698;-78
2020/12/09 03:40:45;;;;;;;28.77;17.05;;;;;;;-1.14;71.42;100651.33;1670901;83;25802;-78
2020/12/09 03:43:12;;;;;;;32.67;18.17;;;;;;;-1.13;71.40;100649.58;1673481;83;25778;-78
2020/12/09 03:45:38;;;;;;;30.70;16.52;;;;;;;-1.15;71.29;100645.83;1676730;83;25824;-77
2020/12/09 03:48:05;;;;;;;30.48;17.20;;;;;;;-1.16;71.33;100640.77;1678710;83;25940;-78
2020/12/09 03:50:31;;;;;;;29.18;17.73;;;;;;;-1.16;71.36;100645.44;1678114;83;25849;-78
2020/12/09 03:52:57;;;;;;;33.10;18.40;;;;;;;-1.16;71.34;100644.16;1681043;83;25721;-77
2020/12/09 03:55:24;;;;;;;31.87;18.87;;;;;;;-1.19;71.27;100636.64;1684554;83;25729;-77
2020/12/09 03:57:51;;;;;;;32.15;19.10;;;;;;;-1.17;71.35;100635.28;1682678;83;26411;-78
2020/12/09 04:00:17;;;;;;;31.15;18.77;;;;;;;-1.16;71.34;100643.34;1680341;83;25726;-78
2020/12/09 04:02:45;;;;;;;30.25;17.05;;;;;;;-1.19;71.21;100641.77;1677075;83;26320;-77
2020/12/09 04:05:11;;;;;;;34.25;19.23;;;;;;;-1.24;71.25;100632.20;1675179;83;25727;-78
2020/12/09 04:07:38;;;;;;;28.23;17.10;;;;;;;-1.25;71.28;100633.13;1675864;83;25793;-78
2020/12/09 04:10:06;;;;;;;29.20;16.73;;;;;;;-1.26;71.30;100637.05;1677607;83;25750;-78
2020/12/09 04:12:33;;;;;;;29.80;16.12;;;;;;;-1.29;71.34;100634.19;1676316;83;26001;-78
2020/12/09 04:14:59;;;;;;;27.02;16.17;;;;;;;-1.29;71.37;100628.23;1684791;83;26028;-78
2020/12/09 04:17:50;;;;;;;32.05;18.40;;;;;;;-1.28;71.44;100628.17;1683148;83;25813;-78
2020/12/09 04:20:34;;;;;;;;;;;;;;;-1.27;71.44;100626.42;1681950;83;25840;-78
2020/12/09 04:23:00;;;;;;;28.90;16.85;;;;;;;-1.27;71.46;100628.53;1674050;83;25740;-78
2020/12/09 04:25:27;;;;;;;33.53;16.40;;;;;;;-1.31;71.48;100628.34;1680745;83;26239;-78
2020/12/09 04:27:53;;;;;;;34.05;18.50;;;;;;;-1.30;71.52;100628.70;1679747;83;25959;-78
2020/12/09 04:30:20;;;;;;;34.90;18.40;;;;;;;-1.30;71.55;100631.27;1676633;83;26190;-78
2020/12/09 04:32:46;;;;;;;30.08;16.95;;;;;;;-1.29;71.55;100634.65;1680747;83;25733;-79
2020/12/09 04:35:13;;;;;;;32.38;17.48;;;;;;;-1.29;71.56;100635.47;1679848;83;26500;-78
2020/12/09 04:37:41;;;;;;;32.53;17.37;;;;;;;-1.29;71.53;100633.37;1678726;83;25837;-78
2020/12/09 04:40:12;;;;;;;28.05;18.12;;;;;;;-1.35;71.51;100627.66;1677993;83;25661;-78
2020/12/09 04:42:38;;;;;;;33.73;18.00;;;;;;;-1.33;71.65;100630.61;1681239;83;26599;-78
2020/12/09 04:45:05;;;;;;;29.42;17.75;;;;;;;-1.30;71.66;100632.55;1681337;83;25783;-78
2020/12/09 04:47:47;;;;;;;30.35;17.20;;;;;;;-1.29;71.60;100633.37;1679415;83;25899;-78
2020/12/09 04:50:28;;;;;;;29.40;18.12;;;;;;;-1.29;71.68;100637.21;1637075;83;26294;-78
2020/12/09 04:53:11;;;;;;;31.12;17.35;;;;;;;-1.28;71.60;100631.16;1641561;83;26367;-77
2020/12/09 04:55:43;;;;;;;29.45;18.00;;;;;;;-1.31;71.63;100623.64;1643808;84;25832;-78
2020/12/09 04:58:15;;;;;;;32.88;19.23;;;;;;;-1.37;71.56;100623.05;1675466;83;25872;-78
2020/12/09 05:00:44;;;;;;;33.08;19.65;;;;;;;-1.41;71.64;100627.17;1682825;83;26627;-78
2020/12/09 05:03:17;;;;;;;29.30;19.23;;;;;;;-1.42;71.71;100625.06;1680191;83;25741;-78
2020/12/09 05:05:45;;;;;;;31.10;19.20;;;;;;;-1.42;71.73;100628.91;1679654;83;26355;-78
2020/12/09 05:08:21;;;;;;;32.13;17.70;;;;;;;-1.43;71.77;100627.23;1674934;83;25752;-77
2020/12/09 05:10:51;;;;;;;34.25;16.77;;;;;;;-1.42;71.83;100635.75;1680173;83;25866;-78
2020/12/09 05:13:25;;;;;;;31.85;18.50;;;;;;;-1.40;71.91;100634.76;1677517;83;25840;-78
2020/12/09 05:15:55;;;;;;;27.75;16.27;;;;;;;-1.40;71.86;100642.45;1679517;83;25641;-78
2020/12/09 05:18:32;;;;;;;28.17;18.02;;;;;;;-1.41;71.84;100643.37;1681662;83;25722;-78
2020/12/09 05:21:16;;;;;;;35.15;18.67;;;;;;;-1.44;71.84;100644.81;1680018;83;26019;-78
2020/12/09 05:23:57;;;;;;;29.10;17.48;;;;;;;-1.44;71.85;100642.72;1678538;83;25770;-78
2020/12/09 05:26:31;;;;;;;29.63;17.23;;;;;;;-1.47;71.86;100642.88;1678558;83;25876;-78
2020/12/09 05:29:16;;;;;;;29.12;17.62;;;;;;;-1.47;71.90;100642.88;1677711;83;25788;-78
2020/12/09 05:31:47;;;;;;;32.17;18.35;;;;;;;-1.51;71.93;100643.94;1671120;83;25819;-77
2020/12/09 05:34:29;;;;;;;33.38;17.73;;;;;;;-1.50;72.06;100645.58;1677253;83;26257;-77
2020/12/09 05:37:01;;;;;;;29.70;17.40;;;;;;;-1.50;72.08;100648.14;1693207;82;25820;-78
2020/12/09 05:39:28;;;;;;;29.95;16.70;;;;;;;-1.49;72.12;100638.28;1682410;83;26341;-78
2020/12/09 05:41:56;;;;;;;29.45;17.35;;;;;;;-1.49;72.15;100648.08;1692146;82;26248;-79
2020/12/09 05:44:24;;;;;;;27.32;16.45;;;;;;;-1.47;72.13;100646.72;1675231;83;25798;-77
2020/12/09 05:47:04;;;;;;;33.05;17.70;;;;;;;-1.48;72.15;100641.20;1678716;83;26389;-78
2020/12/09 05:49:36;;;;;;;25.97;15.93;;;;;;;-1.45;72.22;100644.88;1684394;83;25801;-78
2020/12/09 05:52:17;;;;;;;28.75;16.40;;;;;;;-1.46;72.14;100645.80;1687263;83;25784;-78
2020/12/09 05:54:49;;;;;;;30.70;16.45;;;;;;;-1.49;72.13;100648.53;1685423;83;25691;-78
2020/12/09 05:57:18;;;;;;;27.42;16.37;;;;;;;-1.51;72.16;100649.88;1670915;83;26453;-78
2020/12/09 05:59:49;;;;;;;29.30;16.02;;;;;;;-1.53;72.21;100644.46;1676930;83;25871;-78
2020/12/09 06:02:18;;;;;;;;;;;;;;;-1.58;72.21;100651.13;1679578;83;25734;-78
2020/12/09 06:04:55;;;;;;;24.82;14.00;;;;;;;-1.60;72.35;100656.78;1678091;83;25743;-78
2020/12/09 06:07:29;;;;;;;29.60;17.07;;;;;;;-1.63;72.50;100656.94;1679446;83;26280;-78
2020/12/09 06:10:09;;;;;;;28.83;17.25;;;;;;;-1.67;72.52;100660.09;1678090;83;26567;-78
2020/12/09 06:12:55;;;;;;;;;;;;;;;-1.66;72.61;100658.39;1679106;83;26473;-78
2020/12/09 06:15:25;;;;;;;29.07;15.98;;;;;;;-1.68;72.65;100655.89;1678663;83;25677;-78
2020/12/09 06:18:13;;;;;;;29.47;15.70;;;;;;;-1.68;72.77;100658.45;1679740;83;26671;-78
2020/12/09 06:20:41;;;;;;;31.55;17.17;;;;;;;-1.68;72.80;100660.19;1673290;83;25746;-78
2020/12/09 06:23:12;;;;;;;27.30;17.57;;;;;;;-1.68;72.83;100658.91;1659233;84;25511;-78
2020/12/09 06:25:40;;;;;;;24.63;16.20;;;;;;;-1.66;72.88;100663.52;1680194;83;25769;-78
2020/12/09 06:28:19;;;;;;;25.10;14.83;;;;;;;-1.65;72.91;100657.01;1678332;83;25799;-78
2020/12/09 06:30:47;;;;;;;31.25;16.57;;;;;;;-1.67;72.91;100661.38;1675972;83;25809;-78
2020/12/09 06:33:36;;;;;;;25.05;14.13;;;;;;;-1.69;72.99;100658.52;1672649;83;25830;-78
2020/12/09 06:36:22;;;;;;;29.40;16.90;;;;;;;-1.70;73.05;100655.13;1670722;83;25806;-78
2020/12/09 06:39:15;;;;;;;27.42;16.07;;;;;;;-1.68;73.10;100661.47;1678444;83;25857;-78
2020/12/09 06:41:59;;;;;;;31.80;17.95;;;;;;;-1.66;73.13;100667.36;1654752;83;25805;-78
2020/12/09 06:44:32;;;;;;;26.50;15.88;;;;;;;-1.65;73.20;100671.56;1648206;84;25960;-78
2020/12/09 06:47:00;;;;;;;25.60;15.93;;;;;;;-1.64;73.19;100677.05;1650770;85;25911;-77
2020/12/09 06:49:33;;;;;;;29.87;17.17;;;;;;;-1.67;73.21;100666.50;1642649;85;25935;-78
2020/12/09 06:52:12;;;;;;;26.75;15.50;;;;;;;-1.62;73.28;100673.50;1636285;85;25732;-78
2020/12/09 06:54:42;;;;;;;59.73;30.32;;;;;;;-1.62;73.24;100674.78;1650496;83;25884;-78
2020/12/09 06:57:21;;;;;;;;;;;;;;;-1.63;73.27;100679.55;1634900;85;25870;-77
2020/12/09 06:59:50;;;;;;;46.58;27.27;;;;;;;-1.63;73.30;100675.70;1639977;85;25653;-78
2020/12/09 07:02:26;;;;;;;42.15;26.42;;;;;;;-1.63;73.36;100675.70;1640005;85;25743;-78
2020/12/09 07:04:58;;;;;;;30.08;17.35;;;;;;;-1.63;73.38;100678.27;1637357;85;25803;-78
2020/12/09 07:07:34;;;;;;;29.95;19.90;;;;;;;-1.61;73.40;100669.20;1642527;85;26403;-78
2020/12/09 07:10:05;;;;;;;33.95;18.95;;;;;;;-1.60;73.43;100663.19;1641521;85;25763;-78
2020/12/09 07:12:32;;;;;;;31.73;18.55;;;;;;;-1.64;73.38;100671.50;1620291;86;25875;-78
2020/12/09 07:14:58;;;;;;;29.82;17.10;;;;;;;-1.62;73.51;100672.22;1645346;85;26469;-78
2020/12/09 07:17:28;;;;;;;36.80;21.50;;;;;;;-1.59;73.62;100673.80;1653784;85;26215;-78
2020/12/09 07:19:56;;;;;;;30.20;19.27;;;;;;;-1.55;73.55;100678.34;1653611;85;25727;-78
2020/12/09 07:22:23;;;;;;;29.45;17.35;;;;;;;-1.58;73.54;100676.30;1639258;85;26494;-78
2020/12/09 07:24:51;;;;;;;35.48;18.67;;;;;;;-1.57;73.56;100683.06;1639345;85;26209;-78
2020/12/09 07:27:20;;;;;;;27.27;16.32;;;;;;;-1.55;73.57;100686.84;1645907;85;25818;-78
2020/12/09 07:29:48;;;;;;;30.37;16.10;;;;;;;-1.54;73.56;100694.89;1633176;85;25739;-78
2020/12/09 07:32:21;;;;;;;28.07;16.23;;;;;;;-1.53;73.60;100685.01;1642448;85;25884;-78
2020/12/09 07:35:00;;;;;;;27.80;16.75;;;;;;;-1.52;73.61;100688.42;1643929;85;25901;-78
2020/12/09 07:37:31;;;;;;;29.40;17.10;;;;;;;-1.54;73.61;100687.20;1638803;85;25920;-78
2020/12/09 07:40:03;;;;;;;30.75;17.32;;;;;;;-1.53;73.64;100687.57;1637194;85;25811;-78
2020/12/09 07:42:29;;;;;;;31.70;16.75;;;;;;;-1.51;73.68;100687.51;1668091;83;25853;-78
2020/12/09 07:44:55;;;;;;;28.52;15.95;;;;;;;-1.50;73.67;100685.30;1668382;83;26354;-78
2020/12/09 07:47:29;;;;;;;31.95;17.65;;;;;;;-1.47;73.75;100686.00;1671808;83;25873;-80
2020/12/09 07:50:04;;;;;;;28.73;17.73;;;;;;;-1.45;73.74;100684.16;1667158;84;25879;-78
2020/12/09 07:52:34;;;;;;;29.87;18.35;;;;;;;-1.41;73.81;100686.12;1668789;83;25836;-79
2020/12/09 07:55:06;;;;;;;26.33;14.63;;;;;;;-1.42;73.63;100685.73;1647762;85;26600;-79
2020/12/09 07:57:35;;;;;;;24.95;15.08;;;;;;;-1.44;73.73;100687.11;1670066;83;25881;-79
2020/12/09 08:00:06;;;;;;;28.17;15.65;;;;;;;-1.42;73.77;100695.56;1665711;84;25859;-79
2020/12/09 08:02:37;;;;;;;32.10;18.35;;;;;;;-1.39;73.82;100698.42;1666517;83;25735;-78
2020/12/09 08:05:11;;;;;;;26.70;15.72;;;;;;;-1.40;73.71;100704.44;1669647;84;25532;-79
2020/12/09 08:07:57;;;;;;;56.90;30.30;;;;;;;-1.40;73.78;100696.74;1661927;84;26459;-78
2020/12/09 08:10:33;;;;;;;82.95;43.10;;;;;;;-1.38;73.81;100695.75;1667587;84;25894;-78
2020/12/09 08:13:10;;;;;;;34.03;20.65;;;;;;;-1.36;73.81;100699.08;1671232;83;25959;-78
2020/12/09 08:15:42;;;;;;;32.38;19.05;;;;;;;-1.37;73.75;100706.38;1669549;84;25818;-79
2020/12/09 08:18:20;;;;;;;33.70;19.07;;;;;;;-1.40;73.76;100704.44;1665555;84;25749;-79
2020/12/09 08:20:50;;;;;;;41.40;22.50;;;;;;;-1.40;73.90;100701.87;1667515;84;25837;-81
2020/12/09 08:23:17;;;;;;;32.28;19.27;;;;;;;-1.39;73.89;100704.37;1670354;84;26401;-81
2020/12/09 08:25:51;;;;;;;35.30;20.40;;;;;;;-1.35;73.95;100707.59;1654573;85;26865;-81
2020/12/09 08:28:26;;;;;;;29.35;16.52;;;;;;;-1.30;73.91;100708.18;1667565;84;25766;-82
2020/12/09 08:30:53;;;;;;;31.77;18.73;;;;;;;-1.25;73.89;100701.54;1662368;84;25836;-81
2020/12/09 08:33:26;;;;;;;36.42;18.25;;;;;;;-1.23;73.85;100706.96;1665765;83;26386;-81
2020/12/09 08:35:59;;;;;;;31.50;19.32;;;;;;;-1.21;73.76;100709.42;1664959;84;25726;-81
2020/12/09 08:38:33;;;;;;;42.98;24.02;;;;;;;-1.22;73.72;100709.89;1659582;84;25820;-80
2020/12/09 08:41:05;;;;;;;34.80;20.17;;;;;;;-1.19;73.77;100703.77;1664758;83;25779;-81
2020/12/09 08:43:34;;;;;;;29.92;18.12;;;;;;;-1.19;73.75;100704.59;1671677;84;26213;-81
2020/12/09 08:46:03;;;;;;;38.00;19.95;;;;;;;-1.16;73.75;100708.73;1654717;85;25976;-81
2020/12/09 08:48:32;;;;;;;33.20;18.85;;;;;;;-1.13;73.80;100700.41;1684331;82;25595;-81
2020/12/09 08:51:01;;;;;;;31.62;18.62;;;;;;;-1.08;73.73;100701.92;1691198;83;25658;-81
2020/12/09 08:53:27;;;;;;;33.67;18.65;;;;;;;-1.05;73.73;100691.03;1681122;83;25952;-80
2020/12/09 08:55:54;;;;;;;31.45;17.48;;;;;;;-1.06;73.58;100684.72;1671023;83;25760;-81
2020/12/09 08:58:21;;;;;;;32.60;19.48;;;;;;;-1.06;73.55;100684.72;1649374;84;26356;-80
2020/12/09 09:00:48;;;;;;;35.98;19.45;;;;;;;-1.03;73.63;100684.09;1663041;83;26578;-81
2020/12/09 09:03:25;;;;;;;31.23;18.82;;;;;;;-1.00;73.56;100679.25;1686728;83;26782;-81
2020/12/09 09:05:58;;;;;;;33.25;18.27;;;;;;;-0.99;73.50;100684.74;1684751;83;25813;-80
2020/12/09 09:08:24;;;;;;;29.60;18.05;;;;;;;-1.00;73.39;100691.61;1685423;83;25874;-81
2020/12/09 09:10:52;;;;;;;30.75;18.57;;;;;;;-1.02;73.47;100692.14;1681784;83;26510;-81
2020/12/09 09:13:18;;;;;;;31.68;18.55;;;;;;;-1.05;73.38;100694.87;1677806;83;25789;-80
2020/12/09 09:15:44;;;;;;;36.80;20.70;;;;;;;-1.03;73.48;100697.38;1708098;81;27386;-81
2020/12/09 09:18:14;;;;;;;37.53;20.70;;;;;;;-0.99;73.53;100700.13;1678193;83;25822;-80
2020/12/09 09:20:40;;;;;;;42.80;22.03;;;;;;;-0.96;73.56;100702.06;1674193;83;26597;-80
2020/12/09 09:23:07;;;;;;;35.23;21.52;;;;;;;-0.93;73.52;100701.08;1678716;83;26361;-81
2020/12/09 09:25:35;;;;;;;37.35;22.25;;;;;;;-0.92;73.42;100709.17;1687088;83;26115;-80
2020/12/09 09:28:04;;;;;;;29.63;18.52;;;;;;;-0.93;73.33;100692.09;1672471;83;26488;-77
2020/12/09 09:30:31;;;;;;;30.60;19.23;;;;;;;-0.91;73.31;100685.97;1687873;83;25940;-80
2020/12/09 09:32:57;;;;;;;35.00;20.02;;;;;;;-1.00;73.27;100675.41;1668094;83;25721;-80
2020/12/09 09:35:24;;;;;;;33.18;19.32;;;;;;;-0.91;73.29;100694.13;1667934;83;25844;-80
2020/12/09 09:37:50;;;;;;;28.77;18.20;;;;;;;-0.91;73.22;100694.13;1675116;83;25731;-80
2020/12/09 09:40:17;;;;;;;32.75;19.67;;;;;;;-0.94;73.17;100689.99;1677843;83;25862;-80
2020/12/09 09:42:43;;;;;;;32.78;17.12;;;;;;;-0.95;73.15;100686.25;1678600;83;25744;-80
2020/12/09 09:45:12;;;;;;;26.62;17.23;;;;;;;-0.95;73.16;100690.92;1679309;83;25716;-80
2020/12/09 09:47:41;;;;;;;34.55;18.85;;;;;;;-0.95;73.20;100692.20;1670089;83;26319;-80
2020/12/09 09:50:08;;;;;;;32.25;19.57;;;;;;;-0.93;73.21;100686.97;1679456;83;25930;-80
2020/12/09 09:52:35;;;;;;;33.35;20.50;;;;;;;-0.89;73.24;100685.91;1676026;83;25858;-79
2020/12/09 09:55:03;;;;;;;31.80;18.17;;;;;;;-0.87;73.19;100680.24;1666572;83;25796;-80
2020/12/09 09:57:30;;;;;;;32.53;18.55;;;;;;;-0.88;73.06;100677.28;1682612;83;25804;-80
2020/12/09 09:59:57;;;;;;;34.73;19.82;;;;;;;-0.91;72.97;100677.45;1683327;83;26284;-80
2020/12/09 10:02:23;;;;;;;31.12;18.12;;;;;;;-0.91;73.09;100674.89;1675892;83;25796;-80
2020/12/09 10:04:49;;;;;;;36.70;18.50;;;;;;;-0.88;73.14;100673.90;1680895;83;25767;-80
2020/12/09 10:07:16;;;;;;;34.13;19.27;;;;;;;-0.84;73.16;100679.25;1681608;82;26133;-80
2020/12/09 10:09:42;;;;;;;34.08;19.80;;;;;;;-0.84;73.01;100673.66;1679397;83;25835;-80
2020/12/09 10:12:08;;;;;;;33.98;18.20;;;;;;;-0.83;73.10;100672.73;1679022;83;25870;-80
2020/12/09 10:14:35;;;;;;;32.00;17.48;;;;;;;-0.83;73.05;100671.45;1679826;83;26488;-80
2020/12/09 10:17:05;;;;;;;30.48;18.67;;;;;;;-0.81;73.06;100673.48;1684570;83;25832;-80
2020/12/09 10:19:33;;;;;;;31.52;19.48;;;;;;;-0.75;73.08;100669.75;1686662;83;25789;-80
2020/12/09 10:22:00;;;;;;;33.00;19.82;;;;;;;-0.74;73.06;100656.85;1674268;83;25778;-79
2020/12/09 10:24:27;;;;;;;30.95;16.05;;;;;;;-0.72;72.96;100666.55;1688270;83;25875;-80
2020/12/09 10:26:54;;;;;;;29.25;16.67;;;;;;;-0.74;72.84;100663.27;1690389;83;25766;-80
2020/12/09 10:29:21;;;;;;;35.52;20.10;;;;;;;-0.75;72.84;100659.02;1687976;83;25734;-80
2020/12/09 10:31:49;;;;;;;35.92;18.10;;;;;;;-0.76;72.83;100654.81;1683205;83;25853;-80
2020/12/09 10:34:18;;;;;;;39.67;21.23;;;;;;;-0.77;72.85;100662.12;1688796;83;25916;-80
2020/12/09 10:36:52;;;;;;;45.00;24.95;;;;;;;-0.75;72.94;100659.48;1682207;83;25568;-80
2020/12/09 10:39:22;;;;;;;36.38;19.90;;;;;;;-0.75;72.83;100659.02;1685533;83;25888;-80
2020/12/09 10:41:50;;;;;;;32.48;18.87;;;;;;;-0.75;72.85;100666.72;1681805;83;25749;-80
2020/12/09 10:44:19;;;;;;;32.35;19.82;;;;;;;-0.77;72.72;100658.73;1683976;83;25981;-80
2020/12/09 10:46:47;;;;;;;37.40;21.42;;;;;;;-0.81;72.74;100654.70;1685242;83;26431;-79
2020/12/09 10:49:15;;;;;;;32.45;19.62;;;;;;;-0.79;72.92;100653.70;1690381;83;25324;-80
2020/12/09 10:51:54;;;;;;;41.58;18.25;;;;;;;-0.75;72.94;100656.46;1678187;83;26356;-80
2020/12/09 10:54:20;;;;;;;33.67;18.30;;;;;;;-0.76;72.81;100652.25;1674048;83;25828;-80
2020/12/09 10:56:46;;;;;;;32.23;17.70;;;;;;;-0.75;72.86;100652.61;1671344;83;26368;-80
2020/12/09 10:59:15;;;;;;;33.33;19.00;;;;;;;-0.75;72.77;100651.33;1682067;83;26347;-80
2020/12/09 11:01:43;;;;;;;29.42;18.60;;;;;;;-0.76;72.73;100656.56;1666982;83;26293;-80
2020/12/09 11:04:09;;;;;;;32.78;18.02;;;;;;;-0.74;72.83;100649.58;1662308;83;26334;-80
2020/12/09 11:06:42;;;;;;;29.72;16.87;;;;;;;-0.70;72.94;100658.78;1656299;85;26367;-80
2020/12/09 11:09:08;;;;;;;30.82;18.32;;;;;;;-0.66;72.89;100662.81;1661338;83;25758;-80
2020/12/09 11:11:36;;;;;;;35.52;17.70;;;;;;;-0.65;72.86;100659.81;1676728;83;25642;-80
2020/12/09 11:14:04;;;;;;;34.25;18.75;;;;;;;-0.65;72.75;100645.23;1678077;83;25770;-80
2020/12/09 11:16:33;;;;;;;32.30;18.05;;;;;;;-0.67;72.73;100655.58;1681214;83;25770;-80
2020/12/09 11:18:58;;;;;;;38.05;19.65;;;;;;;-0.64;72.72;100655.04;1679910;83;25856;-81
2020/12/09 11:21:25;;;;;;;35.20;19.42;;;;;;;-0.64;72.74;100654.58;1679605;83;25832;-80
2020/12/09 11:23:52;;;;;;;31.55;17.35;;;;;;;-0.59;72.81;100655.61;1682239;83;25778;-80
2020/12/09 11:26:20;;;;;;;39.58;20.27;;;;;;;-0.60;72.60;100654.80;1683545;83;25789;-81
2020/12/09 11:28:48;;;;;;;35.15;19.55;;;;;;;-0.60;72.63;100649.66;1698126;83;25749;-80
2020/12/09 11:31:20;;;;;;;31.25;16.90;;;;;;;-0.60;72.56;100649.66;1688094;83;25662;-81
2020/12/09 11:33:49;;;;;;;33.70;18.20;;;;;;;-0.61;72.47;100654.41;1675541;83;25771;-80
2020/12/09 11:36:25;;;;;;;35.70;19.15;;;;;;;-0.65;72.59;100643.95;1676159;83;25672;-80
2020/12/09 11:38:55;;;;;;;35.73;17.57;;;;;;;-0.63;72.58;100647.70;1679088;83;25709;-80
2020/12/09 11:41:25;;;;;;;;;;;;;;;-0.58;72.63;100646.53;1662415;83;25327;-80
2020/12/09 11:43:54;;;;;;;;;;;;;;;-0.54;72.74;100645.45;1679904;83;26924;-79
2020/12/09 11:46:21;;;;;;;31.97;18.15;;;;;;;-0.53;72.73;100640.68;1683607;83;25852;-80
2020/12/09 11:48:47;;;;;;;34.73;20.00;;;;;;;-0.50;72.63;100640.97;1680116;83;25764;-80